sensor_id;sensor_type;location;lat;lon;timestamp;P1;durP1;ratioP1;P2;durP2;ratioP2
44358;SDS011;30077;52.474;13.326;2022-11-15T00:04:16;83.60;;;43.03;;
44358;SDS011;30077;52.474;13.326;2022-11-15T00:09:17;85.68;;;42.67;;
44358;SDS011;30077;52.474;13.326;2022-11-15T00:14:17;87.95;;;44.72;;
44358;SDS011;30077;52.474;13.326;2022-11-15T00:19:17;86.93;;;42.63;;
44358;SDS011;30077;52.474;13.326;2022-11-15T00:24:18;81.15;;;41.72;;
44358;SDS011;30077;52.474;13.326;2022-11-15T00:29:18;83.00;;;42.85;;
44358;SDS011;30077;52.474;13.326;2022-11-15T00:34:20;82.77;;;44.33;;
44358;SDS011;30077;52.474;13.326;2022-11-15T00:39:20;86.43;;;43.40;;
44358;SDS011;30077;52.474;13.326;2022-11-15T00:44:21;90.30;;;44.13;;
44358;SDS011;30077;52.474;13.326;2022-11-15T00:49:21;84.25;;;43.85;;
44358;SDS011;30077;52.474;13.326;2022-11-15T00:54:21;95.10;;;44.95;;
44358;SDS011;30077;52.474;13.326;2022-11-15T00:59:21;91.25;;;43.60;;
44358;SDS011;30077;52.474;13.326;2022-11-15T01:04:23;87.32;;;43.35;;
44358;SDS011;30077;52.474;13.326;2022-11-15T01:09:23;84.13;;;42.92;;
44358;SDS011;30077;52.474;13.326;2022-11-15T01:14:25;90.25;;;44.47;;
44358;SDS011;30077;52.474;13.326;2022-11-15T01:19:25;93.97;;;44.50;;
44358;SDS011;30077;52.474;13.326;2022-11-15T01:24:26;91.27;;;44.23;;
44358;SDS011;30077;52.474;13.326;2022-11-15T01:29:26;85.97;;;42.88;;
44358;SDS011;30077;52.474;13.326;2022-11-15T01:34:26;91.72;;;43.67;;
44358;SDS011;30077;52.474;13.326;2022-11-15T01:39:27;86.17;;;43.13;;
44358;SDS011;30077;52.474;13.326;2022-11-15T01:44:38;90.80;;;45.22;;
44358;SDS011;30077;52.474;13.326;2022-11-15T01:49:46;88.80;;;44.92;;
44358;SDS011;30077;52.474;13.326;2022-11-15T01:54:56;90.22;;;43.85;;
44358;SDS011;30077;52.474;13.326;2022-11-15T02:00:03;88.05;;;43.45;;
44358;SDS011;30077;52.474;13.326;2022-11-15T02:05:05;91.57;;;45.25;;
44358;SDS011;30077;52.474;13.326;2022-11-15T02:10:12;95.20;;;45.30;;
44358;SDS011;30077;52.474;13.326;2022-11-15T02:15:14;91.28;;;44.20;;
44358;SDS011;30077;52.474;13.326;2022-11-15T02:25:37;91.72;;;43.47;;
44358;SDS011;30077;52.474;13.326;2022-11-15T02:36:15;93.95;;;47.30;;
44358;SDS011;30077;52.474;13.326;2022-11-15T02:41:31;91.18;;;43.83;;
44358;SDS011;30077;52.474;13.326;2022-11-15T02:46:45;94.50;;;44.60;;
44358;SDS011;30077;52.474;13.326;2022-11-15T02:52:16;94.13;;;44.83;;
44358;SDS011;30077;52.474;13.326;2022-11-15T02:57:18;83.65;;;41.20;;
44358;SDS011;30077;52.474;13.326;2022-11-15T03:13:58;86.30;;;43.05;;
44358;SDS011;30077;52.474;13.326;2022-11-15T03:24:44;87.05;;;42.30;;
44358;SDS011;30077;52.474;13.326;2022-11-15T03:29:47;88.97;;;42.53;;
44358;SDS011;30077;52.474;13.326;2022-11-15T03:34:57;85.07;;;41.20;;
44358;SDS011;30077;52.474;13.326;2022-11-15T03:40:00;81.57;;;40.95;;
44358;SDS011;30077;52.474;13.326;2022-11-15T03:45:08;82.90;;;42.67;;
44358;SDS011;30077;52.474;13.326;2022-11-15T03:50:18;88.55;;;41.67;;
44358;SDS011;30077;52.474;13.326;2022-11-15T03:55:20;87.85;;;42.20;;
44358;SDS011;30077;52.474;13.326;2022-11-15T04:00:21;89.57;;;43.05;;
44358;SDS011;30077;52.474;13.326;2022-11-15T04:05:22;87.55;;;42.72;;
44358;SDS011;30077;52.474;13.326;2022-11-15T04:10:22;90.95;;;43.78;;
44358;SDS011;30077;52.474;13.326;2022-11-15T04:15:23;84.35;;;42.70;;
44358;SDS011;30077;52.474;13.326;2022-11-15T04:20:25;89.22;;;44.75;;
44358;SDS011;30077;52.474;13.326;2022-11-15T04:25:46;91.13;;;43.20;;
44358;SDS011;30077;52.474;13.326;2022-11-15T04:30:50;82.25;;;42.90;;
44358;SDS011;30077;52.474;13.326;2022-11-15T04:35:50;87.03;;;42.40;;
44358;SDS011;30077;52.474;13.326;2022-11-15T04:41:09;83.85;;;42.38;;
44358;SDS011;30077;52.474;13.326;2022-11-15T04:46:09;86.18;;;42.15;;
44358;SDS011;30077;52.474;13.326;2022-11-15T04:51:09;80.35;;;39.45;;
44358;SDS011;30077;52.474;13.326;2022-11-15T04:56:09;92.97;;;43.80;;
44358;SDS011;30077;52.474;13.326;2022-11-15T05:01:11;85.07;;;40.78;;
44358;SDS011;30077;52.474;13.326;2022-11-15T05:06:14;84.93;;;42.53;;
44358;SDS011;30077;52.474;13.326;2022-11-15T05:11:14;82.25;;;39.97;;
44358;SDS011;30077;52.474;13.326;2022-11-15T05:16:15;85.20;;;39.50;;
44358;SDS011;30077;52.474;13.326;2022-11-15T05:21:15;83.97;;;40.50;;
44358;SDS011;30077;52.474;13.326;2022-11-15T05:26:16;81.75;;;40.47;;
44358;SDS011;30077;52.474;13.326;2022-11-15T05:31:17;86.88;;;42.22;;
44358;SDS011;30077;52.474;13.326;2022-11-15T05:36:36;88.43;;;42.80;;
44358;SDS011;30077;52.474;13.326;2022-11-15T05:41:43;84.88;;;40.55;;
44358;SDS011;30077;52.474;13.326;2022-11-15T05:46:46;82.53;;;40.17;;
44358;SDS011;30077;52.474;13.326;2022-11-15T05:51:50;80.50;;;38.70;;
44358;SDS011;30077;52.474;13.326;2022-11-15T05:56:53;85.03;;;42.15;;
44358;SDS011;30077;52.474;13.326;2022-11-15T06:01:54;83.83;;;41.30;;
44358;SDS011;30077;52.474;13.326;2022-11-15T06:06:55;80.80;;;40.60;;
44358;SDS011;30077;52.474;13.326;2022-11-15T06:11:55;84.20;;;39.87;;
44358;SDS011;30077;52.474;13.326;2022-11-15T06:16:55;84.65;;;41.60;;
44358;SDS011;30077;52.474;13.326;2022-11-15T06:21:55;86.28;;;41.70;;
44358;SDS011;30077;52.474;13.326;2022-11-15T06:26:56;87.70;;;41.30;;
44358;SDS011;30077;52.474;13.326;2022-11-15T06:31:57;86.47;;;42.83;;
44358;SDS011;30077;52.474;13.326;2022-11-15T06:36:57;88.97;;;42.90;;
44358;SDS011;30077;52.474;13.326;2022-11-15T06:41:59;87.15;;;41.17;;
44358;SDS011;30077;52.474;13.326;2022-11-15T06:46:59;81.10;;;40.67;;
44358;SDS011;30077;52.474;13.326;2022-11-15T06:51:59;80.65;;;40.25;;
44358;SDS011;30077;52.474;13.326;2022-11-15T06:57:01;80.43;;;40.15;;
44358;SDS011;30077;52.474;13.326;2022-11-15T07:02:04;83.22;;;40.47;;
44358;SDS011;30077;52.474;13.326;2022-11-15T07:07:05;79.45;;;40.00;;
44358;SDS011;30077;52.474;13.326;2022-11-15T07:12:06;86.78;;;42.17;;
44358;SDS011;30077;52.474;13.326;2022-11-15T07:17:07;78.00;;;38.67;;
44358;SDS011;30077;52.474;13.326;2022-11-15T07:22:07;78.32;;;41.17;;
44358;SDS011;30077;52.474;13.326;2022-11-15T07:27:08;76.72;;;40.75;;
44358;SDS011;30077;52.474;13.326;2022-11-15T07:32:09;85.60;;;40.88;;
44358;SDS011;30077;52.474;13.326;2022-11-15T07:37:09;77.23;;;39.57;;
44358;SDS011;30077;52.474;13.326;2022-11-15T07:42:10;76.70;;;38.17;;
44358;SDS011;30077;52.474;13.326;2022-11-15T07:47:31;80.63;;;39.58;;
44358;SDS011;30077;52.474;13.326;2022-11-15T07:52:31;77.80;;;39.43;;
44358;SDS011;30077;52.474;13.326;2022-11-15T07:57:31;82.55;;;40.15;;
44358;SDS011;30077;52.474;13.326;2022-11-15T08:02:32;83.73;;;41.10;;
44358;SDS011;30077;52.474;13.326;2022-11-15T08:07:32;72.43;;;38.38;;
44358;SDS011;30077;52.474;13.326;2022-11-15T08:12:33;64.55;;;34.88;;
44358;SDS011;30077;52.474;13.326;2022-11-15T08:17:34;70.50;;;35.22;;
44358;SDS011;30077;52.474;13.326;2022-11-15T08:22:34;67.10;;;35.70;;
44358;SDS011;30077;52.474;13.326;2022-11-15T08:27:35;67.88;;;36.33;;
44358;SDS011;30077;52.474;13.326;2022-11-15T08:32:35;63.50;;;33.63;;
44358;SDS011;30077;52.474;13.326;2022-11-15T08:37:35;60.22;;;32.80;;
44358;SDS011;30077;52.474;13.326;2022-11-15T08:42:36;59.55;;;33.22;;
44358;SDS011;30077;52.474;13.326;2022-11-15T08:47:36;59.20;;;31.85;;
44358;SDS011;30077;52.474;13.326;2022-11-15T08:52:37;57.30;;;31.60;;
44358;SDS011;30077;52.474;13.326;2022-11-15T08:57:39;53.40;;;30.35;;
44358;SDS011;30077;52.474;13.326;2022-11-15T09:02:39;51.58;;;29.48;;
44358;SDS011;30077;52.474;13.326;2022-11-15T09:07:40;53.15;;;28.73;;
44358;SDS011;30077;52.474;13.326;2022-11-15T09:12:40;52.07;;;28.43;;
44358;SDS011;30077;52.474;13.326;2022-11-15T09:17:41;48.08;;;27.23;;
44358;SDS011;30077;52.474;13.326;2022-11-15T09:22:41;44.70;;;26.55;;
44358;SDS011;30077;52.474;13.326;2022-11-15T09:27:42;41.38;;;25.98;;
44358;SDS011;30077;52.474;13.326;2022-11-15T09:32:42;39.72;;;22.75;;
44358;SDS011;30077;52.474;13.326;2022-11-15T09:37:42;41.38;;;24.02;;
44358;SDS011;30077;52.474;13.326;2022-11-15T09:42:52;39.35;;;22.15;;
44358;SDS011;30077;52.474;13.326;2022-11-15T09:53:55;35.15;;;21.55;;
44358;SDS011;30077;52.474;13.326;2022-11-15T09:59:20;44.22;;;24.65;;
44358;SDS011;30077;52.474;13.326;2022-11-15T10:04:28;31.83;;;20.00;;
44358;SDS011;30077;52.474;13.326;2022-11-15T10:09:31;32.22;;;20.55;;
44358;SDS011;30077;52.474;13.326;2022-11-15T10:14:45;36.63;;;21.52;;
44358;SDS011;30077;52.474;13.326;2022-11-15T10:20:10;43.53;;;23.05;;
44358;SDS011;30077;52.474;13.326;2022-11-15T10:25:19;33.97;;;21.17;;
44358;SDS011;30077;52.474;13.326;2022-11-15T10:35:39;32.22;;;21.00;;
44358;SDS011;30077;52.474;13.326;2022-11-15T10:40:41;35.33;;;21.95;;
44358;SDS011;30077;52.474;13.326;2022-11-15T10:45:43;31.50;;;21.08;;
44358;SDS011;30077;52.474;13.326;2022-11-15T10:50:45;39.20;;;23.92;;
44358;SDS011;30077;52.474;13.326;2022-11-15T11:00:49;30.80;;;20.35;;
44358;SDS011;30077;52.474;13.326;2022-11-15T11:06:08;39.85;;;21.48;;
44358;SDS011;30077;52.474;13.326;2022-11-15T11:11:11;32.47;;;20.38;;
44358;SDS011;30077;52.474;13.326;2022-11-15T11:16:20;30.60;;;19.17;;
44358;SDS011;30077;52.474;13.326;2022-11-15T11:21:36;33.17;;;19.80;;
44358;SDS011;30077;52.474;13.326;2022-11-15T11:26:45;33.33;;;20.25;;
44358;SDS011;30077;52.474;13.326;2022-11-15T11:37:37;30.30;;;18.90;;
44358;SDS011;30077;52.474;13.326;2022-11-15T11:42:56;34.90;;;19.70;;
44358;SDS011;30077;52.474;13.326;2022-11-15T11:48:07;32.72;;;19.83;;
44358;SDS011;30077;52.474;13.326;2022-11-15T11:58:56;30.63;;;19.08;;
44358;SDS011;30077;52.474;13.326;2022-11-15T12:04:04;36.90;;;21.77;;
44358;SDS011;30077;52.474;13.326;2022-11-15T12:14:36;30.07;;;19.13;;
44358;SDS011;30077;52.474;13.326;2022-11-15T12:19:45;28.40;;;18.50;;
44358;SDS011;30077;52.474;13.326;2022-11-15T12:30:14;28.77;;;17.25;;
44358;SDS011;30077;52.474;13.326;2022-11-15T12:40:37;23.05;;;15.25;;
44358;SDS011;30077;52.474;13.326;2022-11-15T12:46:01;26.77;;;16.35;;
44358;SDS011;30077;52.474;13.326;2022-11-15T12:51:03;28.42;;;17.05;;
44358;SDS011;30077;52.474;13.326;2022-11-15T13:06:38;30.83;;;17.55;;
44358;SDS011;30077;52.474;13.326;2022-11-15T13:11:44;29.67;;;17.00;;
44358;SDS011;30077;52.474;13.326;2022-11-15T13:16:47;28.67;;;17.60;;
44358;SDS011;30077;52.474;13.326;2022-11-15T13:21:48;31.23;;;17.70;;
44358;SDS011;30077;52.474;13.326;2022-11-15T13:27:15;27.60;;;16.80;;
44358;SDS011;30077;52.474;13.326;2022-11-15T13:32:20;27.88;;;17.02;;
44358;SDS011;30077;52.474;13.326;2022-11-15T13:42:22;21.50;;;14.93;;
44358;SDS011;30077;52.474;13.326;2022-11-15T13:47:30;29.92;;;16.88;;
44358;SDS011;30077;52.474;13.326;2022-11-15T13:52:32;34.05;;;18.92;;
44358;SDS011;30077;52.474;13.326;2022-11-15T13:57:41;24.75;;;16.50;;
44358;SDS011;30077;52.474;13.326;2022-11-15T14:02:44;33.33;;;17.60;;
44358;SDS011;30077;52.474;13.326;2022-11-15T14:07:55;26.00;;;17.45;;
44358;SDS011;30077;52.474;13.326;2022-11-15T14:12:59;27.00;;;16.52;;
44358;SDS011;30077;52.474;13.326;2022-11-15T14:18:00;34.30;;;19.08;;
44358;SDS011;30077;52.474;13.326;2022-11-15T14:33:29;38.50;;;21.77;;
44358;SDS011;30077;52.474;13.326;2022-11-15T14:38:34;41.58;;;20.92;;
44358;SDS011;30077;52.474;13.326;2022-11-15T14:43:34;38.65;;;20.80;;
44358;SDS011;30077;52.474;13.326;2022-11-15T14:48:34;35.75;;;21.65;;
44358;SDS011;30077;52.474;13.326;2022-11-15T14:53:35;32.00;;;20.03;;
44358;SDS011;30077;52.474;13.326;2022-11-15T14:58:35;34.80;;;20.63;;
44358;SDS011;30077;52.474;13.326;2022-11-15T15:03:36;37.08;;;22.38;;
44358;SDS011;30077;52.474;13.326;2022-11-15T15:08:36;36.30;;;20.67;;
44358;SDS011;30077;52.474;13.326;2022-11-15T15:13:36;34.53;;;21.20;;
44358;SDS011;30077;52.474;13.326;2022-11-15T15:18:37;35.00;;;20.98;;
44358;SDS011;30077;52.474;13.326;2022-11-15T15:23:38;38.72;;;22.38;;
44358;SDS011;30077;52.474;13.326;2022-11-15T15:28:39;34.10;;;21.38;;
44358;SDS011;30077;52.474;13.326;2022-11-15T15:33:40;35.58;;;22.08;;
44358;SDS011;30077;52.474;13.326;2022-11-15T15:38:40;35.72;;;21.75;;
44358;SDS011;30077;52.474;13.326;2022-11-15T15:43:41;37.30;;;22.52;;
44358;SDS011;30077;52.474;13.326;2022-11-15T15:48:41;44.95;;;23.55;;
44358;SDS011;30077;52.474;13.326;2022-11-15T15:53:42;42.78;;;25.25;;
44358;SDS011;30077;52.474;13.326;2022-11-15T15:58:44;35.33;;;21.42;;
44358;SDS011;30077;52.474;13.326;2022-11-15T16:03:44;42.17;;;24.70;;
44358;SDS011;30077;52.474;13.326;2022-11-15T16:08:46;44.50;;;25.13;;
44358;SDS011;30077;52.474;13.326;2022-11-15T16:13:48;41.30;;;25.77;;
44358;SDS011;30077;52.474;13.326;2022-11-15T16:18:48;44.60;;;25.05;;
44358;SDS011;30077;52.474;13.326;2022-11-15T16:23:48;42.70;;;23.85;;
44358;SDS011;30077;52.474;13.326;2022-11-15T16:28:49;42.42;;;25.58;;
44358;SDS011;30077;52.474;13.326;2022-11-15T16:33:50;47.88;;;27.80;;
44358;SDS011;30077;52.474;13.326;2022-11-15T16:38:51;42.97;;;25.67;;
44358;SDS011;30077;52.474;13.326;2022-11-15T16:43:52;42.40;;;24.83;;
44358;SDS011;30077;52.474;13.326;2022-11-15T16:48:52;48.13;;;25.63;;
44358;SDS011;30077;52.474;13.326;2022-11-15T16:53:53;46.75;;;27.77;;
44358;SDS011;30077;52.474;13.326;2022-11-15T16:58:54;56.97;;;27.67;;
44358;SDS011;30077;52.474;13.326;2022-11-15T17:04:00;47.40;;;28.35;;
44358;SDS011;30077;52.474;13.326;2022-11-15T17:09:21;53.42;;;31.80;;
44358;SDS011;30077;52.474;13.326;2022-11-15T17:14:25;57.63;;;32.38;;
44358;SDS011;30077;52.474;13.326;2022-11-15T17:19:26;63.23;;;34.20;;
44358;SDS011;30077;52.474;13.326;2022-11-15T17:24:27;66.28;;;37.25;;
44358;SDS011;30077;52.474;13.326;2022-11-15T17:29:27;66.78;;;38.00;;
44358;SDS011;30077;52.474;13.326;2022-11-15T17:34:29;70.97;;;39.33;;
44358;SDS011;30077;52.474;13.326;2022-11-15T17:39:29;89.45;;;48.38;;
44358;SDS011;30077;52.474;13.326;2022-11-15T17:44:30;75.45;;;43.35;;
44358;SDS011;30077;52.474;13.326;2022-11-15T17:49:31;79.80;;;45.35;;
44358;SDS011;30077;52.474;13.326;2022-11-15T17:54:37;84.20;;;45.60;;
44358;SDS011;30077;52.474;13.326;2022-11-15T17:59:38;96.18;;;50.10;;
44358;SDS011;30077;52.474;13.326;2022-11-15T18:04:40;91.97;;;49.95;;
44358;SDS011;30077;52.474;13.326;2022-11-15T18:09:40;91.07;;;49.23;;
44358;SDS011;30077;52.474;13.326;2022-11-15T18:14:44;91.32;;;50.78;;
44358;SDS011;30077;52.474;13.326;2022-11-15T18:19:45;89.72;;;50.22;;
44358;SDS011;30077;52.474;13.326;2022-11-15T18:24:47;88.90;;;49.55;;
44358;SDS011;30077;52.474;13.326;2022-11-15T18:29:47;94.20;;;49.22;;
44358;SDS011;30077;52.474;13.326;2022-11-15T18:34:48;93.80;;;51.50;;
44358;SDS011;30077;52.474;13.326;2022-11-15T18:39:48;100.23;;;51.50;;
44358;SDS011;30077;52.474;13.326;2022-11-15T18:44:48;100.03;;;51.67;;
44358;SDS011;30077;52.474;13.326;2022-11-15T18:49:49;95.38;;;51.53;;
44358;SDS011;30077;52.474;13.326;2022-11-15T18:54:49;93.37;;;49.03;;
44358;SDS011;30077;52.474;13.326;2022-11-15T18:59:49;93.95;;;51.10;;
44358;SDS011;30077;52.474;13.326;2022-11-15T19:04:51;89.10;;;49.70;;
44358;SDS011;30077;52.474;13.326;2022-11-15T19:09:51;94.60;;;49.28;;
44358;SDS011;30077;52.474;13.326;2022-11-15T19:14:51;133.48;;;70.15;;
44358;SDS011;30077;52.474;13.326;2022-11-15T19:19:53;144.23;;;80.82;;
44358;SDS011;30077;52.474;13.326;2022-11-15T19:24:54;89.85;;;49.90;;
44358;SDS011;30077;52.474;13.326;2022-11-15T19:29:54;94.68;;;49.30;;
44358;SDS011;30077;52.474;13.326;2022-11-15T19:34:55;93.97;;;50.15;;
44358;SDS011;30077;52.474;13.326;2022-11-15T19:39:55;100.32;;;50.42;;
44358;SDS011;30077;52.474;13.326;2022-11-15T19:44:55;95.93;;;51.85;;
44358;SDS011;30077;52.474;13.326;2022-11-15T19:49:56;98.88;;;50.10;;
44358;SDS011;30077;52.474;13.326;2022-11-15T19:54:56;102.30;;;50.53;;
44358;SDS011;30077;52.474;13.326;2022-11-15T19:59:56;99.20;;;50.50;;
44358;SDS011;30077;52.474;13.326;2022-11-15T20:04:57;110.10;;;54.23;;
44358;SDS011;30077;52.474;13.326;2022-11-15T20:09:58;119.53;;;53.83;;
44358;SDS011;30077;52.474;13.326;2022-11-15T20:14:59;110.88;;;52.13;;
44358;SDS011;30077;52.474;13.326;2022-11-15T20:19:59;117.40;;;51.53;;
44358;SDS011;30077;52.474;13.326;2022-11-15T20:25:02;109.18;;;51.85;;
44358;SDS011;30077;52.474;13.326;2022-11-15T20:30:02;113.45;;;53.03;;
44358;SDS011;30077;52.474;13.326;2022-11-15T20:35:03;123.55;;;53.67;;
44358;SDS011;30077;52.474;13.326;2022-11-15T20:40:04;113.95;;;52.53;;
44358;SDS011;30077;52.474;13.326;2022-11-15T20:45:06;117.95;;;52.35;;
44358;SDS011;30077;52.474;13.326;2022-11-15T20:50:08;113.32;;;51.55;;
44358;SDS011;30077;52.474;13.326;2022-11-15T20:55:08;136.57;;;61.53;;
44358;SDS011;30077;52.474;13.326;2022-11-15T21:00:08;108.40;;;48.53;;
44358;SDS011;30077;52.474;13.326;2022-11-15T21:05:09;136.02;;;62.03;;
44358;SDS011;30077;52.474;13.326;2022-11-15T21:10:10;105.45;;;47.03;;
44358;SDS011;30077;52.474;13.326;2022-11-15T21:15:28;124.15;;;48.05;;
44358;SDS011;30077;52.474;13.326;2022-11-15T21:20:29;104.00;;;46.28;;
44358;SDS011;30077;52.474;13.326;2022-11-15T21:25:29;103.53;;;46.17;;
44358;SDS011;30077;52.474;13.326;2022-11-15T21:30:29;122.93;;;46.28;;
44358;SDS011;30077;52.474;13.326;2022-11-15T21:35:30;110.13;;;48.05;;
44358;SDS011;30077;52.474;13.326;2022-11-15T21:40:31;103.38;;;45.92;;
44358;SDS011;30077;52.474;13.326;2022-11-15T21:45:32;103.43;;;47.08;;
44358;SDS011;30077;52.474;13.326;2022-11-15T21:50:32;111.35;;;46.80;;
44358;SDS011;30077;52.474;13.326;2022-11-15T21:55:32;125.32;;;47.13;;
44358;SDS011;30077;52.474;13.326;2022-11-15T22:00:33;111.40;;;46.80;;
44358;SDS011;30077;52.474;13.326;2022-11-15T22:05:51;106.25;;;46.97;;
44358;SDS011;30077;52.474;13.326;2022-11-15T22:10:52;100.18;;;46.33;;
44358;SDS011;30077;52.474;13.326;2022-11-15T22:15:53;175.70;;;81.93;;
44358;SDS011;30077;52.474;13.326;2022-11-15T22:20:58;105.22;;;46.28;;
44358;SDS011;30077;52.474;13.326;2022-11-15T22:25:59;106.45;;;45.80;;
44358;SDS011;30077;52.474;13.326;2022-11-15T22:30:59;126.57;;;44.70;;
44358;SDS011;30077;52.474;13.326;2022-11-15T22:36:00;111.95;;;44.80;;
44358;SDS011;30077;52.474;13.326;2022-11-15T22:41:02;108.88;;;44.40;;
44358;SDS011;30077;52.474;13.326;2022-11-15T22:46:03;121.03;;;43.38;;
44358;SDS011;30077;52.474;13.326;2022-11-15T22:51:04;103.15;;;45.15;;
44358;SDS011;30077;52.474;13.326;2022-11-15T22:56:04;109.03;;;45.38;;
44358;SDS011;30077;52.474;13.326;2022-11-15T23:01:05;116.13;;;44.33;;
44358;SDS011;30077;52.474;13.326;2022-11-15T23:06:06;139.18;;;45.72;;
44358;SDS011;30077;52.474;13.326;2022-11-15T23:11:09;146.38;;;46.30;;
44358;SDS011;30077;52.474;13.326;2022-11-15T23:16:29;103.50;;;44.40;;
44358;SDS011;30077;52.474;13.326;2022-11-15T23:21:36;98.30;;;44.10;;
44358;SDS011;30077;52.474;13.326;2022-11-15T23:26:58;112.05;;;47.53;;
44358;SDS011;30077;52.474;13.326;2022-11-15T23:31:59;106.60;;;46.42;;
44358;SDS011;30077;52.474;13.326;2022-11-15T23:37:18;102.05;;;44.85;;
44358;SDS011;30077;52.474;13.326;2022-11-15T23:42:18;96.15;;;41.20;;
44358;SDS011;30077;52.474;13.326;2022-11-15T23:47:20;103.32;;;43.58;;
44358;SDS011;30077;52.474;13.326;2022-11-15T23:52:20;116.18;;;45.15;;
44358;SDS011;30077;52.474;13.326;2022-11-15T23:57:22;119.53;;;43.28;;
